Time;durP1;ratioP1;P1;durP2;ratioP2;P2;SDS_P1;SDS_P2;PMS_P1;PMS_P2;Temp;Humidity;BMP_temperature;BMP_pressure;BME280_temperature;BME280_humidity;BME280_pressure;Samples;Min_cycle;Max_cycle;Signal;HPM_P1;HPM_P2
2023/04/28 00:00:42;;;;;;;0.60;0.60;;;;;;;;;;5090525;27;94022;-65
2023/04/28 00:03:10;;;;;;;0.67;0.67;;;;;;;;;;5099215;27;93820;-64
2023/04/28 00:05:38;;;;;;;1.57;1.10;;;;;;;;;;5099601;27;92028;-64
2023/04/28 00:08:07;;;;;;;1.03;0.93;;;;;;;;;;5087141;27;91996;-64
2023/04/28 00:10:36;;;;;;;0.73;0.70;;;;;;;;;;5095715;27;93680;-64
2023/04/28 00:13:06;;;;;;;0.60;0.53;;;;;;;;;;5078233;27;93886;-65
2023/04/28 00:15:34;;;;;;;1.40;1.13;;;;;;;;;;5078521;27;92939;-65
2023/04/28 00:18:03;;;;;;;1.20;0.87;;;;;;;;;;5079238;27;92031;-64
2023/04/28 00:20:32;;;;;;;0.90;0.90;;;;;;;;;;5078144;27;95181;-64
2023/04/28 00:23:00;;;;;;;1.47;0.90;;;;;;;;;;5078771;27;94676;-64
2023/04/28 00:25:28;;;;;;;2.00;0.70;;;;;;;;;;5080925;27;91898;-64
2023/04/28 00:27:57;;;;;;;0.70;0.70;;;;;;;;;;5082281;27;92174;-64
2023/04/28 00:30:26;;;;;;;1.07;0.80;;;;;;;;;;5081726;27;94255;-64
2023/04/28 00:32:55;;;;;;;2.67;0.80;;;;;;;;;;5098739;27;93785;-64
2023/04/28 00:35:23;;;;;;;0.50;0.50;;;;;;;;;;5124482;27;92082;-65
2023/04/28 00:37:52;;;;;;;0.73;0.60;;;;;;;;;;5108239;27;91380;-64
2023/04/28 00:40:20;;;;;;;0.77;0.60;;;;;;;;;;5102770;27;94220;-65
2023/04/28 00:42:48;;;;;;;1.13;0.90;;;;;;;;;;5102452;27;93961;-64
2023/04/28 00:45:17;;;;;;;1.63;0.80;;;;;;;;;;5102447;27;93013;-65
2023/04/28 00:47:46;;;;;;;0.80;0.77;;;;;;;;;;5084324;27;91922;-64
2023/04/28 00:50:15;;;;;;;3.40;0.70;;;;;;;;;;5081981;27;94073;-64
2023/04/28 00:52:43;;;;;;;0.67;0.53;;;;;;;;;;5082236;27;93817;-64
2023/04/28 00:55:12;;;;;;;0.60;0.60;;;;;;;;;;5086395;27;91955;-64
2023/04/28 00:57:41;;;;;;;0.60;0.60;;;;;;;;;;5102778;27;92057;-64
2023/04/28 01:00:09;;;;;;;1.10;0.87;;;;;;;;;;5094769;27;94112;-64
2023/04/28 01:02:38;;;;;;;0.90;0.83;;;;;;;;;;5093872;27;93749;-64
2023/04/28 01:05:08;;;;;;;1.30;0.80;;;;;;;;;;5101819;27;92454;-65
2023/04/28 01:07:36;;;;;;;1.40;0.60;;;;;;;;;;5098354;27;92067;-65
2023/04/28 01:10:05;;;;;;;4.23;0.70;;;;;;;;;;5081029;27;95081;-64
2023/04/28 01:12:34;;;;;;;0.80;0.80;;;;;;;;;;5091274;27;94633;-64
2023/04/28 01:15:02;;;;;;;0.80;0.80;;;;;;;;;;5103021;27;91829;-64
2023/04/28 01:17:30;;;;;;;1.17;0.70;;;;;;;;;;5102461;27;92068;-65
2023/04/28 01:20:00;;;;;;;0.87;0.83;;;;;;;;;;5101879;27;94050;-64
2023/04/28 01:22:29;;;;;;;1.07;0.50;;;;;;;;;;5096898;27;93525;-64
2023/04/28 01:24:59;;;;;;;0.57;0.57;;;;;;;;;;5082838;27;91941;-64
2023/04/28 01:27:28;;;;;;;0.73;0.73;;;;;;;;;;5082020;27;91417;-64
2023/04/28 01:29:57;;;;;;;1.53;0.90;;;;;;;;;;5081568;27;94336;-64
2023/04/28 01:32:25;;;;;;;0.70;0.70;;;;;;;;;;5081869;27;92212;-64
2023/04/28 01:34:53;;;;;;;1.17;0.63;;;;;;;;;;5091848;27;92999;-64
2023/04/28 01:37:22;;;;;;;0.43;0.43;;;;;;;;;;5096561;27;92069;-64
2023/04/28 01:39:51;;;;;;;1.40;0.70;;;;;;;;;;5084316;27;94185;-64
2023/04/28 01:42:21;;;;;;;0.70;0.70;;;;;;;;;;5099684;27;93837;-64
2023/04/28 01:44:49;;;;;;;0.60;0.60;;;;;;;;;;5094895;27;91940;-64
2023/04/28 01:47:18;;;;;;;1.93;1.00;;;;;;;;;;5092465;27;92309;-65
2023/04/28 01:49:48;;;;;;;1.80;0.90;;;;;;;;;;5099378;27;94237;-64
2023/04/28 01:52:18;;;;;;;1.30;0.90;;;;;;;;;;5099859;27;93855;-64
2023/04/28 01:54:47;;;;;;;0.63;0.60;;;;;;;;;;5101448;27;92230;-64
2023/04/28 01:57:15;;;;;;;1.00;0.90;;;;;;;;;;5081117;27;92192;-64
2023/04/28 01:59:46;;;;;;;1.93;0.70;;;;;;;;;;5079356;27;95046;-64
2023/04/28 02:02:15;;;;;;;2.00;0.87;;;;;;;;;;5081213;27;94785;-64
2023/04/28 02:04:43;;;;;;;1.30;0.93;;;;;;;;;;5081247;27;92091;-64
2023/04/28 02:07:12;;;;;;;1.23;0.97;;;;;;;;;;5081631;27;92157;-64
2023/04/28 02:09:40;;;;;;;1.63;0.70;;;;;;;;;;5081345;27;93933;-64
2023/04/28 02:12:08;;;;;;;0.60;0.60;;;;;;;;;;5080646;27;93766;-64
2023/04/28 02:14:36;;;;;;;2.20;1.10;;;;;;;;;;5080652;27;92633;-64
2023/04/28 02:17:06;;;;;;;0.67;0.67;;;;;;;;;;5080842;27;91374;-65
2023/04/28 02:19:37;;;;;;;0.77;0.77;;;;;;;;;;5080022;27;94173;-64
2023/04/28 02:22:06;;;;;;;3.27;1.10;;;;;;;;;;5080197;27;94116;-64
2023/04/28 02:24:36;;;;;;;1.73;0.83;;;;;;;;;;5080476;27;93047;-64
2023/04/28 02:27:04;;;;;;;0.40;0.40;;;;;;;;;;5080272;27;92008;-64
2023/04/28 02:29:32;;;;;;;1.23;0.83;;;;;;;;;;5079966;27;94057;-64
2023/04/28 02:32:01;;;;;;;0.57;0.57;;;;;;;;;;5079749;27;93829;-64
2023/04/28 02:34:31;;;;;;;0.60;0.60;;;;;;;;;;5080651;27;92277;-65
2023/04/28 02:36:59;;;;;;;0.90;0.80;;;;;;;;;;5080232;27;92030;-64
2023/04/28 02:39:29;;;;;;;0.70;0.70;;;;;;;;;;5079917;27;94111;-64
2023/04/28 02:41:57;;;;;;;1.03;0.53;;;;;;;;;;5090745;27;93566;-64
2023/04/28 02:44:26;;;;;;;1.70;0.97;;;;;;;;;;5099837;27;91883;-64
2023/04/28 02:46:54;;;;;;;0.70;0.70;;;;;;;;;;5099993;27;92907;-64
2023/04/28 02:49:22;;;;;;;0.90;0.90;;;;;;;;;;5090621;27;93650;-64
2023/04/28 02:51:52;;;;;;;0.73;0.53;;;;;;;;;;5099357;27;94773;-64
2023/04/28 02:54:26;;;;;;;0.77;0.77;;;;;;;;;;5094369;27;92080;-64
2023/04/28 02:56:55;;;;;;;0.97;0.87;;;;;;;;;;5086015;27;92110;-64
2023/04/28 02:59:23;;;;;;;0.80;0.80;;;;;;;;;;5100500;27;93947;-64
2023/04/28 03:01:52;;;;;;;0.80;0.80;;;;;;;;;;5086028;27;94013;-64
2023/04/28 03:04:20;;;;;;;0.60;0.60;;;;;;;;;;5080454;27;92115;-64
2023/04/28 03:06:49;;;;;;;1.37;0.70;;;;;;;;;;5080684;27;91313;-63
2023/04/28 03:09:19;;;;;;;1.53;0.87;;;;;;;;;;5079538;27;94143;-64
2023/04/28 03:11:47;;;;;;;0.60;0.60;;;;;;;;;;5080017;27;93844;-64
2023/04/28 03:14:16;;;;;;;0.60;0.60;;;;;;;;;;5079610;27;92954;-64
2023/04/28 03:16:44;;;;;;;0.80;0.80;;;;;;;;;;5079536;27;92154;-64
2023/04/28 03:19:13;;;;;;;0.60;0.60;;;;;;;;;;5078948;27;94278;-64
2023/04/28 03:21:41;;;;;;;0.70;0.70;;;;;;;;;;5079680;27;93743;-64
2023/04/28 03:24:09;;;;;;;2.80;0.70;;;;;;;;;;5079816;27;92097;-64
2023/04/28 03:26:39;;;;;;;0.90;0.87;;;;;;;;;;5080050;27;92086;-64
2023/04/28 03:29:08;;;;;;;0.60;0.60;;;;;;;;;;5079672;27;94145;-64
2023/04/28 03:31:36;;;;;;;0.67;0.67;;;;;;;;;;5080603;27;93591;-64
2023/04/28 03:34:04;;;;;;;0.60;0.40;;;;;;;;;;5079288;27;92041;-64
2023/04/28 03:36:33;;;;;;;0.67;0.67;;;;;;;;;;5079593;27;92032;-64
2023/04/28 03:39:01;;;;;;;0.90;0.70;;;;;;;;;;5078713;27;95096;-64
2023/04/28 03:41:30;;;;;;;0.97;0.97;;;;;;;;;;5079664;27;94880;-64
2023/04/28 03:44:00;;;;;;;0.73;0.50;;;;;;;;;;5079516;27;92131;-64
2023/04/28 03:46:28;;;;;;;0.50;0.50;;;;;;;;;;5079523;27;92076;-64
2023/04/28 03:48:56;;;;;;;1.30;0.90;;;;;;;;;;5078925;27;94257;-64
2023/04/28 03:51:26;;;;;;;0.67;0.67;;;;;;;;;;5079184;27;93971;-64
2023/04/28 03:53:55;;;;;;;0.60;0.60;;;;;;;;;;5079226;27;92020;-64
2023/04/28 03:56:23;;;;;;;2.30;0.97;;;;;;;;;;5079652;27;92784;-64
2023/04/28 03:58:52;;;;;;;0.60;0.60;;;;;;;;;;5078787;27;94151;-64
2023/04/28 04:01:21;;;;;;;1.53;0.60;;;;;;;;;;5082161;27;93794;-64
2023/04/28 04:03:50;;;;;;;0.80;0.80;;;;;;;;;;5082578;27;92992;-64
2023/04/28 04:06:18;;;;;;;0.60;0.60;;;;;;;;;;5082582;27;92080;-64
2023/04/28 04:08:47;;;;;;;0.77;0.57;;;;;;;;;;5082495;27;94139;-64
2023/04/28 04:11:15;;;;;;;1.13;0.80;;;;;;;;;;5082068;27;93894;-64
2023/04/28 04:13:44;;;;;;;0.53;0.53;;;;;;;;;;5083005;27;91941;-64
2023/04/28 04:16:14;;;;;;;1.23;0.80;;;;;;;;;;5082205;27;92104;-64
2023/04/28 04:18:44;;;;;;;1.13;0.70;;;;;;;;;;5082290;27;94144;-64
2023/04/28 04:21:13;;;;;;;0.93;0.87;;;;;;;;;;5082622;27;93716;-64
2023/04/28 04:23:41;;;;;;;2.40;0.80;;;;;;;;;;5082269;27;92810;-64
2023/04/28 04:26:10;;;;;;;0.67;0.67;;;;;;;;;;5082200;27;92060;-64
2023/04/28 04:28:38;;;;;;;1.03;0.70;;;;;;;;;;5081950;27;95099;-64
2023/04/28 04:31:07;;;;;;;1.23;0.70;;;;;;;;;;5081523;27;95072;-64
2023/04/28 04:33:36;;;;;;;0.83;0.83;;;;;;;;;;5082156;27;92072;-64
2023/04/28 04:36:06;;;;;;;1.17;0.60;;;;;;;;;;5081702;27;92191;-64
2023/04/28 04:38:35;;;;;;;3.20;0.87;;;;;;;;;;5082167;27;93090;-64
2023/04/28 04:41:03;;;;;;;0.77;0.77;;;;;;;;;;5081594;27;93694;-64
2023/04/28 04:43:32;;;;;;;0.40;0.40;;;;;;;;;;5082907;27;92031;-64
2023/04/28 04:46:00;;;;;;;0.67;0.60;;;;;;;;;;5082276;27;91349;-64
2023/04/28 04:48:29;;;;;;;1.17;0.77;;;;;;;;;;5082290;27;94188;-64
2023/04/28 04:50:57;;;;;;;0.67;0.67;;;;;;;;;;5081823;27;93629;-64
2023/04/28 04:53:27;;;;;;;0.83;0.80;;;;;;;;;;5081283;27;93051;-64
2023/04/28 04:55:55;;;;;;;1.40;0.90;;;;;;;;;;5081937;27;92095;-64
2023/04/28 04:58:24;;;;;;;1.03;0.80;;;;;;;;;;5089700;27;94272;-64
2023/04/28 05:00:52;;;;;;;0.63;0.63;;;;;;;;;;5096079;27;93878;-64
2023/04/28 05:03:20;;;;;;;0.77;0.77;;;;;;;;;;5091756;27;91952;-64
2023/04/28 05:05:49;;;;;;;0.70;0.70;;;;;;;;;;5102156;27;92097;-64
2023/04/28 05:08:18;;;;;;;0.97;0.80;;;;;;;;;;5100567;27;93989;-64
2023/04/28 05:10:47;;;;;;;1.27;0.90;;;;;;;;;;5082128;27;93806;-65
2023/04/28 05:13:16;;;;;;;0.70;0.70;;;;;;;;;;5091465;27;92413;-64
2023/04/28 05:15:44;;;;;;;1.13;0.90;;;;;;;;;;5101804;27;92136;-64
2023/04/28 05:18:13;;;;;;;1.60;1.00;;;;;;;;;;5084104;27;95054;-64
2023/04/28 05:20:41;;;;;;;1.10;0.77;;;;;;;;;;5082940;27;94697;-64
2023/04/28 05:23:10;;;;;;;3.00;1.23;;;;;;;;;;5081602;27;92170;-64
2023/04/28 05:25:38;;;;;;;0.50;0.50;;;;;;;;;;5094400;27;92064;-64
2023/04/28 05:28:08;;;;;;;1.03;0.83;;;;;;;;;;5089075;27;94157;-64
2023/04/28 05:30:36;;;;;;;1.10;1.00;;;;;;;;;;5081094;27;93800;-64
2023/04/28 05:33:04;;;;;;;1.13;0.90;;;;;;;;;;5081784;27;91999;-64
2023/04/28 05:35:33;;;;;;;1.27;1.03;;;;;;;;;;5081991;27;91304;-64
2023/04/28 05:38:01;;;;;;;1.30;0.70;;;;;;;;;;5080810;27;94388;-64
2023/04/28 05:40:30;;;;;;;0.50;0.50;;;;;;;;;;5081449;27;94965;-64
2023/04/28 05:42:58;;;;;;;0.60;0.57;;;;;;;;;;5080555;27;92998;-64
2023/04/28 05:45:28;;;;;;;0.80;0.80;;;;;;;;;;5080682;27;92083;-63
2023/04/28 05:47:57;;;;;;;3.53;0.80;;;;;;;;;;5080616;27;93958;-64
2023/04/28 05:50:25;;;;;;;1.00;0.90;;;;;;;;;;5080512;27;94096;-63
2023/04/28 05:52:54;;;;;;;1.10;0.80;;;;;;;;;;5081341;27;92067;-64
2023/04/28 05:55:22;;;;;;;1.33;0.70;;;;;;;;;;5080304;27;92809;-64
2023/04/28 05:57:51;;;;;;;0.40;0.40;;;;;;;;;;5080931;27;94153;-64
2023/04/28 06:00:21;;;;;;;0.97;0.93;;;;;;;;;;5080035;27;94076;-63
2023/04/28 06:02:50;;;;;;;0.80;0.80;;;;;;;;;;5081261;27;92085;-64
2023/04/28 06:05:19;;;;;;;1.03;0.80;;;;;;;;;;5079451;27;92167;-64
2023/04/28 06:07:48;;;;;;;0.87;0.73;;;;;;;;;;5079465;27;95209;-64
2023/04/28 06:10:17;;;;;;;1.93;1.00;;;;;;;;;;5080687;27;94809;-64
2023/04/28 06:12:46;;;;;;;1.20;0.70;;;;;;;;;;5080625;27;92028;-64
2023/04/28 06:15:14;;;;;;;0.80;0.80;;;;;;;;;;5080897;27;92010;-64
2023/04/28 06:17:42;;;;;;;2.07;0.80;;;;;;;;;;5081592;27;94228;-64
2023/04/28 06:20:13;;;;;;;0.60;0.60;;;;;;;;;;5080720;27;93909;-64
2023/04/28 06:22:41;;;;;;;2.30;0.80;;;;;;;;;;5080181;27;92154;-64
2023/04/28 06:25:10;;;;;;;1.00;0.90;;;;;;;;;;5081358;27;91224;-64
2023/04/28 06:27:38;;;;;;;0.97;0.97;;;;;;;;;;5081111;27;94348;-64
2023/04/28 06:30:07;;;;;;;0.90;0.70;;;;;;;;;;5088075;27;93907;-64
2023/04/28 06:32:36;;;;;;;6.67;1.27;;;;;;;;;;5092980;27;93662;-64
2023/04/28 06:35:05;;;;;;;2.43;1.13;;;;;;;;;;5111438;27;92171;-64
2023/04/28 06:37:34;;;;;;;0.87;0.87;;;;;;;;;;5118777;27;94527;-64
2023/04/28 06:40:03;;;;;;;1.90;1.17;;;;;;;;;;5100674;27;93941;-64
2023/04/28 06:42:31;;;;;;;1.00;1.00;;;;;;;;;;5101463;27;92016;-64
2023/04/28 06:44:59;;;;;;;0.80;0.80;;;;;;;;;;5101349;27;92076;-64
2023/04/28 06:47:28;;;;;;;0.80;0.80;;;;;;;;;;5100808;27;93203;-64
2023/04/28 06:49:56;;;;;;;0.80;0.80;;;;;;;;;;5105000;27;93800;-64
2023/04/28 06:52:27;;;;;;;0.70;0.70;;;;;;;;;;5121695;27;92113;-64
2023/04/28 06:55:09;;;;;;;0.80;0.80;;;;;;;;;;5121233;27;91933;-64
2023/04/28 06:57:37;;;;;;;0.93;0.93;;;;;;;;;;5120948;27;95257;-64
2023/04/28 07:00:07;;;;;;;3.60;0.73;;;;;;;;;;5121479;27;93718;-64
2023/04/28 07:02:35;;;;;;;1.50;0.63;;;;;;;;;;5122027;27;92056;-64
2023/04/28 07:05:04;;;;;;;0.80;0.80;;;;;;;;;;5119940;27;92095;-64
2023/04/28 07:07:33;;;;;;;0.77;0.77;;;;;;;;;;5100140;27;92858;-64
2023/04/28 07:10:06;;;;;;;0.60;0.60;;;;;;;;;;5100171;27;93939;-64
2023/04/28 07:12:36;;;;;;;0.77;0.77;;;;;;;;;;5099986;27;92101;-64
2023/04/28 07:15:05;;;;;;;0.60;0.60;;;;;;;;;;5095690;27;91130;-64
2023/04/28 07:17:33;;;;;;;1.20;0.90;;;;;;;;;;5079598;27;94064;-64
2023/04/28 07:20:03;;;;;;;0.70;0.70;;;;;;;;;;5095437;27;94041;-64
2023/04/28 07:22:31;;;;;;;0.60;0.60;;;;;;;;;;5094934;27;92957;-64
2023/04/28 07:25:00;;;;;;;0.67;0.67;;;;;;;;;;5081147;27;92153;-64
2023/04/28 07:27:28;;;;;;;0.93;0.83;;;;;;;;;;5079469;27;94361;-64
2023/04/28 07:29:58;;;;;;;0.80;0.80;;;;;;;;;;5095267;27;93804;-64
2023/04/28 07:32:26;;;;;;;0.70;0.70;;;;;;;;;;5100589;27;92043;-64
2023/04/28 07:34:55;;;;;;;1.07;1.07;;;;;;;;;;5099817;27;92190;-64
2023/04/28 07:37:24;;;;;;;1.40;0.60;;;;;;;;;;5103480;27;93110;-64
2023/04/28 07:39:52;;;;;;;1.00;0.80;;;;;;;;;;5101981;27;93475;-64
2023/04/28 07:42:21;;;;;;;1.57;0.90;;;;;;;;;;5101208;27;92825;-64
2023/04/28 07:44:49;;;;;;;0.77;0.77;;;;;;;;;;5092636;27;92132;-64
2023/04/28 07:47:19;;;;;;;1.03;0.87;;;;;;;;;;5081950;27;95176;-64
2023/04/28 07:49:47;;;;;;;0.70;0.70;;;;;;;;;;5083528;27;94764;-64
2023/04/28 07:52:16;;;;;;;0.83;0.80;;;;;;;;;;5101688;27;91984;-64
2023/04/28 07:54:44;;;;;;;0.90;0.90;;;;;;;;;;5124729;27;92055;-64
2023/04/28 07:57:13;;;;;;;0.87;0.77;;;;;;;;;;5099519;27;94173;-64
2023/04/28 07:59:41;;;;;;;0.80;0.80;;;;;;;;;;5101521;27;93017;-64
2023/04/28 08:02:12;;;;;;;2.40;0.97;;;;;;;;;;5101280;27;92015;-64
2023/04/28 08:04:42;;;;;;;0.63;0.60;;;;;;;;;;5097917;27;91513;-64
2023/04/28 08:07:10;;;;;;;0.57;0.57;;;;;;;;;;5119926;27;94219;-64
2023/04/28 08:09:40;;;;;;;0.97;0.60;;;;;;;;;;5120732;27;93461;-64
2023/04/28 08:12:09;;;;;;;3.70;0.80;;;;;;;;;;5103184;27;92903;-64
2023/04/28 08:14:37;;;;;;;1.27;1.00;;;;;;;;;;5101648;27;92048;-64
2023/04/28 08:17:05;;;;;;;0.70;0.70;;;;;;;;;;5103432;27;92947;-64
2023/04/28 08:19:34;;;;;;;1.27;0.77;;;;;;;;;;5091697;27;93804;-64
2023/04/28 08:22:05;;;;;;;1.00;0.83;;;;;;;;;;5085510;27;92180;-64
2023/04/28 08:24:34;;;;;;;0.60;0.60;;;;;;;;;;5101368;27;92070;-64
2023/04/28 08:27:02;;;;;;;1.23;0.77;;;;;;;;;;5101320;27;94155;-65
2023/04/28 08:29:31;;;;;;;1.27;0.80;;;;;;;;;;5103438;27;92662;-64
2023/04/28 08:32:00;;;;;;;1.20;0.90;;;;;;;;;;5103250;27;92054;-64
2023/04/28 08:34:29;;;;;;;1.80;0.70;;;;;;;;;;5102842;27;91981;-65
2023/04/28 08:36:57;;;;;;;1.60;0.80;;;;;;;;;;5101857;27;95163;-64
2023/04/28 08:39:27;;;;;;;1.20;0.90;;;;;;;;;;5102937;27;94855;-64
2023/04/28 08:41:57;;;;;;;0.70;0.67;;;;;;;;;;5103235;27;92219;-65
2023/04/28 08:44:25;;;;;;;0.80;0.80;;;;;;;;;;5102573;27;91977;-65
2023/04/28 08:46:55;;;;;;;0.70;0.70;;;;;;;;;;5101591;27;94185;-65
2023/04/28 08:49:24;;;;;;;0.87;0.87;;;;;;;;;;5102605;27;93967;-65
2023/04/28 08:51:56;;;;;;;0.70;0.63;;;;;;;;;;5102820;27;92572;-65
2023/04/28 08:54:24;;;;;;;0.47;0.47;;;;;;;;;;5102913;27;91448;-65
2023/04/28 08:56:55;;;;;;;1.13;0.80;;;;;;;;;;5102590;27;93085;-65
2023/04/28 08:59:24;;;;;;;0.90;0.70;;;;;;;;;;5102633;27;92471;-65
2023/04/28 09:01:52;;;;;;;0.80;0.80;;;;;;;;;;5102409;27;92996;-65
2023/04/28 09:04:21;;;;;;;0.80;0.80;;;;;;;;;;5102598;27;91969;-65
2023/04/28 09:06:50;;;;;;;0.60;0.60;;;;;;;;;;5102026;27;94091;-65
2023/04/28 09:09:20;;;;;;;1.00;0.60;;;;;;;;;;5102467;27;92695;-65
2023/04/28 09:11:52;;;;;;;0.70;0.70;;;;;;;;;;5103217;27;91743;-65
2023/04/28 09:14:22;;;;;;;0.67;0.60;;;;;;;;;;5102672;27;92051;-65
2023/04/28 09:16:50;;;;;;;0.60;0.60;;;;;;;;;;5102490;27;92859;-65
2023/04/28 09:19:19;;;;;;;1.27;0.80;;;;;;;;;;5102446;27;93680;-65
2023/04/28 09:21:48;;;;;;;1.47;1.13;;;;;;;;;;5102449;27;91860;-65
2023/04/28 09:24:26;;;;;;;0.90;0.90;;;;;;;;;;5102973;27;91899;-65
2023/04/28 09:26:55;;;;;;;1.37;0.80;;;;;;;;;;5101954;27;94785;-65
2023/04/28 09:29:24;;;;;;;0.83;0.70;;;;;;;;;;5102203;27;94824;-65
2023/04/28 09:31:53;;;;;;;0.70;0.60;;;;;;;;;;5102685;27;92052;-65
2023/04/28 09:34:22;;;;;;;0.70;0.70;;;;;;;;;;5102423;27;92514;-65
2023/04/28 09:36:50;;;;;;;0.97;0.80;;;;;;;;;;5101276;27;94239;-65
2023/04/28 09:39:29;;;;;;;0.70;0.70;;;;;;;;;;5101867;27;93920;-65
2023/04/28 09:42:02;;;;;;;0.63;0.63;;;;;;;;;;5102342;27;92095;-65
2023/04/28 09:44:32;;;;;;;0.77;0.70;;;;;;;;;;5102792;27;91229;-65
2023/04/28 09:47:01;;;;;;;0.63;0.63;;;;;;;;;;5101948;27;94019;-65
2023/04/28 09:49:29;;;;;;;0.73;0.73;;;;;;;;;;5101689;27;93729;-65
2023/04/28 09:52:04;;;;;;;0.80;0.80;;;;;;;;;;5101422;27;92865;-65
2023/04/28 09:54:33;;;;;;;0.50;0.50;;;;;;;;;;5101514;27;92050;-65
2023/04/28 09:57:01;;;;;;;1.47;0.70;;;;;;;;;;5100131;27;94231;-65
2023/04/28 09:59:31;;;;;;;1.17;0.80;;;;;;;;;;5101662;27;94122;-65
2023/04/28 10:02:00;;;;;;;1.67;0.70;;;;;;;;;;5101895;27;91988;-65
2023/04/28 10:04:49;;;;;;;2.37;0.70;;;;;;;;;;5102205;27;92049;-65
2023/04/28 10:07:19;;;;;;;0.70;0.70;;;;;;;;;;5101332;27;94013;-65
2023/04/28 10:09:49;;;;;;;0.70;0.70;;;;;;;;;;5101777;27;95313;-65
2023/04/28 10:12:17;;;;;;;0.57;0.50;;;;;;;;;;5102127;27;91897;-65
2023/04/28 10:14:48;;;;;;;0.60;0.60;;;;;;;;;;5102206;27;91935;-65
2023/04/28 10:17:17;;;;;;;1.70;0.70;;;;;;;;;;5100697;27;95015;-65
2023/04/28 10:19:56;;;;;;;0.63;0.60;;;;;;;;;;5085261;27;81518;-42
2023/04/28 10:22:33;;;;;;;0.93;0.73;;;;;;;;;;5082427;27;81599;-42
2023/04/28 10:25:21;;;;;;;0.50;0.50;;;;;;;;;;5082936;27;81657;-42
2023/04/28 10:27:49;;;;;;;0.70;0.70;;;;;;;;;;5082928;27;82948;-41
2023/04/28 10:30:18;;;;;;;0.60;0.60;;;;;;;;;;5082772;27;83294;-41
2023/04/28 10:33:16;;;;;;;1.17;0.73;;;;;;;;;;5082607;27;82052;-44
2023/04/28 10:35:46;;;;;;;0.50;0.50;;;;;;;;;;5081837;27;81635;-42
2023/04/28 10:38:15;;;;;;;0.60;0.50;;;;;;;;;;5082003;27;82781;-42
2023/04/28 10:40:43;;;;;;;0.80;0.80;;;;;;;;;;5082144;27;82400;-42
2023/04/28 10:43:12;;;;;;;0.90;0.90;;;;;;;;;;5082312;27;82270;-42
2023/04/28 10:46:13;;;;;;;0.57;0.57;;;;;;;;;;5082325;27;81651;-42
2023/04/28 10:48:55;;;;;;;0.60;0.60;;;;;;;;;;5082412;27;83845;-42
2023/04/28 10:51:26;;;;;;;0.40;0.40;;;;;;;;;;5082415;27;82224;-41
2023/04/28 10:54:13;;;;;;;0.47;0.47;;;;;;;;;;5082569;27;82697;-42
2023/04/28 10:56:41;;;;;;;0.63;0.63;;;;;;;;;;5082392;27;81865;-42
2023/04/28 10:59:24;;;;;;;0.90;0.40;;;;;;;;;;5082087;27;84052;-41
2023/04/28 11:01:53;;;;;;;0.70;0.53;;;;;;;;;;5082007;27;83310;-42
2023/04/28 11:04:23;;;;;;;0.50;0.50;;;;;;;;;;5082082;27;81693;-41
2023/04/28 11:07:06;;;;;;;0.67;0.67;;;;;;;;;;5082083;27;81583;-42
2023/04/28 11:09:51;;;;;;;0.37;0.37;;;;;;;;;;5081861;27;84046;-41
2023/04/28 11:12:20;;;;;;;0.83;0.60;;;;;;;;;;5081760;27;81989;-42
2023/04/28 11:14:48;;;;;;;0.37;0.37;;;;;;;;;;5081891;27;81846;-44
2023/04/28 11:17:18;;;;;;;0.50;0.50;;;;;;;;;;5082095;27;81938;-43
2023/04/28 11:19:47;;;;;;;0.50;0.50;;;;;;;;;;5081323;27;82657;-44
2023/04/28 11:22:17;;;;;;;0.73;0.60;;;;;;;;;;5081869;27;81992;-44
2023/04/28 11:24:57;;;;;;;0.80;0.53;;;;;;;;;;5081827;27;81867;-44
2023/04/28 11:27:25;;;;;;;0.40;0.40;;;;;;;;;;5081734;27;81872;-44
2023/04/28 11:29:54;;;;;;;0.40;0.40;;;;;;;;;;5075859;27;82994;-41
2023/04/28 11:32:27;;;;;;;0.40;0.40;;;;;;;;;;5067897;27;82227;-43
2023/04/28 11:34:55;;;;;;;0.60;0.60;;;;;;;;;;5067969;27;82258;-43
2023/04/28 11:37:24;;;;;;;0.60;0.60;;;;;;;;;;5067832;27;81812;-43
2023/04/28 11:39:52;;;;;;;0.83;0.60;;;;;;;;;;5067595;27;82801;-43
2023/04/28 11:42:24;;;;;;;0.37;0.37;;;;;;;;;;5067417;27;82490;-43
2023/04/28 11:44:53;;;;;;;0.40;0.40;;;;;;;;;;5067581;27;81527;-43
2023/04/28 11:47:31;;;;;;;1.53;0.80;;;;;;;;;;5067463;27;82203;-43
2023/04/28 11:50:00;;;;;;;0.30;0.30;;;;;;;;;;5067892;27;84057;-43
2023/04/28 11:52:28;;;;;;;0.60;0.60;;;;;;;;;;5067724;27;82284;-43
2023/04/28 11:54:57;;;;;;;0.80;0.80;;;;;;;;;;5067704;27;81595;-43
2023/04/28 11:57:27;;;;;;;0.60;0.50;;;;;;;;;;5067401;27;81830;-43
2023/04/28 11:59:55;;;;;;;0.60;0.60;;;;;;;;;;5067521;27;81768;-43
2023/04/28 12:02:27;;;;;;;0.33;0.33;;;;;;;;;;5066759;27;81858;-43
2023/04/28 12:04:57;;;;;;;0.50;0.50;;;;;;;;;;5067352;27;81711;-43
2023/04/28 12:07:25;;;;;;;0.67;0.63;;;;;;;;;;5067186;27;81692;-43
2023/04/28 12:10:08;;;;;;;0.53;0.53;;;;;;;;;;5067143;27;82448;-43
2023/04/28 12:12:38;;;;;;;0.60;0.60;;;;;;;;;;5066911;27;83369;-43
2023/04/28 12:15:19;;;;;;;0.50;0.50;;;;;;;;;;5066806;27;82178;-43
2023/04/28 12:17:49;;;;;;;0.47;0.47;;;;;;;;;;5066270;27;82128;-43
2023/04/28 12:20:33;;;;;;;0.30;0.30;;;;;;;;;;5067085;27;84093;-43
2023/04/28 12:23:02;;;;;;;0.40;0.40;;;;;;;;;;5067154;27;83245;-43
2023/04/28 12:25:30;;;;;;;0.70;0.60;;;;;;;;;;5067401;27;82396;-43
2023/04/28 12:28:01;;;;;;;0.50;0.50;;;;;;;;;;5067117;27;81613;-43
2023/04/28 12:30:30;;;;;;;0.50;0.50;;;;;;;;;;5067131;27;83864;-43
2023/04/28 12:32:58;;;;;;;0.40;0.40;;;;;;;;;;5067107;27;82361;-43
2023/04/28 12:35:27;;;;;;;0.20;0.20;;;;;;;;;;5066641;27;82206;-43
2023/04/28 12:37:57;;;;;;;0.40;0.40;;;;;;;;;;5066826;27;82425;-43
2023/04/28 12:40:25;;;;;;;0.60;0.60;;;;;;;;;;5066843;27;83940;-43
2023/04/28 12:42:54;;;;;;;0.47;0.40;;;;;;;;;;5065580;27;82252;-43
2023/04/28 12:45:24;;;;;;;0.90;0.60;;;;;;;;;;5066371;27;82268;-43
2023/04/28 12:47:52;;;;;;;0.60;0.57;;;;;;;;;;5066601;27;81912;-43
2023/04/28 12:50:20;;;;;;;0.40;0.33;;;;;;;;;;5066873;27;82852;-43
2023/04/28 12:52:49;;;;;;;0.40;0.40;;;;;;;;;;5066360;27;81762;-43
2023/04/28 12:55:17;;;;;;;0.30;0.30;;;;;;;;;;5066919;27;81838;-43
2023/04/28 12:57:45;;;;;;;0.67;0.50;;;;;;;;;;5066813;27;81701;-43
2023/04/28 13:00:16;;;;;;;0.30;0.30;;;;;;;;;;5066300;27;83942;-43
2023/04/28 13:02:46;;;;;;;0.50;0.50;;;;;;;;;;5066179;27;82285;-43
2023/04/28 13:05:15;;;;;;;0.37;0.37;;;;;;;;;;5066459;27;81533;-43
2023/04/28 13:07:44;;;;;;;0.60;0.50;;;;;;;;;;5066173;27;81588;-43
2023/04/28 13:10:12;;;;;;;2.10;0.33;;;;;;;;;;5066833;27;83653;-43
2023/04/28 13:12:41;;;;;;;0.47;0.47;;;;;;;;;;5066451;27;83230;-43
2023/04/28 13:15:10;;;;;;;0.70;0.70;;;;;;;;;;5066500;27;81561;-43
2023/04/28 13:17:38;;;;;;;0.40;0.40;;;;;;;;;;5065859;27;81785;-43
2023/04/28 13:20:09;;;;;;;0.77;0.63;;;;;;;;;;5066392;27;83966;-43
2023/04/28 13:22:37;;;;;;;0.50;0.50;;;;;;;;;;5066264;27;82469;-43
2023/04/28 13:25:06;;;;;;;0.43;0.40;;;;;;;;;;5066172;27;81698;-43
2023/04/28 13:27:34;;;;;;;0.47;0.47;;;;;;;;;;5066420;27;81724;-43
2023/04/28 13:30:05;;;;;;;0.50;0.40;;;;;;;;;;5065960;27;83956;-43
2023/04/28 13:32:33;;;;;;;0.47;0.47;;;;;;;;;;5065958;27;83442;-43
2023/04/28 13:35:02;;;;;;;1.77;0.70;;;;;;;;;;5065947;27;82140;-44
2023/04/28 13:37:32;;;;;;;0.50;0.27;;;;;;;;;;5065742;27;81811;-43
2023/04/28 13:40:02;;;;;;;0.97;0.40;;;;;;;;;;5065892;27;83766;-43
2023/04/28 13:42:31;;;;;;;0.60;0.57;;;;;;;;;;5066126;27;82193;-43
2023/04/28 13:44:59;;;;;;;0.40;0.40;;;;;;;;;;5065808;27;81899;-43
2023/04/28 13:47:31;;;;;;;0.40;0.40;;;;;;;;;;5066101;27;81554;-43
2023/04/28 13:50:00;;;;;;;0.40;0.40;;;;;;;;;;5066000;27;82998;-43
2023/04/28 13:52:28;;;;;;;0.40;0.40;;;;;;;;;;5065199;27;82144;-43
2023/04/28 13:54:57;;;;;;;1.00;0.90;;;;;;;;;;5065434;27;81779;-43
2023/04/28 13:57:26;;;;;;;0.83;0.57;;;;;;;;;;5065215;27;81634;-43
2023/04/28 13:59:54;;;;;;;0.50;0.50;;;;;;;;;;5065622;27;82880;-43
2023/04/28 14:02:23;;;;;;;0.70;0.70;;;;;;;;;;5065769;27;81724;-43
2023/04/28 14:04:52;;;;;;;1.80;0.70;;;;;;;;;;5065663;27;81439;-43
2023/04/28 14:07:21;;;;;;;0.70;0.70;;;;;;;;;;5065436;27;81840;-43
2023/04/28 14:09:50;;;;;;;0.40;0.40;;;;;;;;;;5065183;27;82942;-43
2023/04/28 14:12:19;;;;;;;0.50;0.50;;;;;;;;;;5065422;27;82298;-43
2023/04/28 14:14:48;;;;;;;0.40;0.40;;;;;;;;;;5065542;27;82288;-43
2023/04/28 14:17:17;;;;;;;0.70;0.43;;;;;;;;;;5064958;27;81750;-43
2023/04/28 14:19:45;;;;;;;0.73;0.53;;;;;;;;;;5064595;27;82997;-43
2023/04/28 14:22:13;;;;;;;0.50;0.50;;;;;;;;;;5064995;27;82303;-43
2023/04/28 14:24:42;;;;;;;0.60;0.37;;;;;;;;;;5065240;27;82396;-43
2023/04/28 14:27:11;;;;;;;0.47;0.40;;;;;;;;;;5064892;27;81603;-43
2023/04/28 14:29:42;;;;;;;3.60;0.60;;;;;;;;;;5064421;27;81513;-43
2023/04/28 14:32:11;;;;;;;0.60;0.60;;;;;;;;;;5064414;27;83018;-43
2023/04/28 14:34:40;;;;;;;0.57;0.50;;;;;;;;;;5064819;27;84026;-43
2023/04/28 14:37:08;;;;;;;0.70;0.70;;;;;;;;;;5064374;27;81843;-43
2023/04/28 14:39:38;;;;;;;0.33;0.33;;;;;;;;;;5064614;27;82858;-43
2023/04/28 14:42:07;;;;;;;0.40;0.40;;;;;;;;;;5063644;27;85064;-43
2023/04/28 14:44:35;;;;;;;0.70;0.63;;;;;;;;;;5064395;27;82578;-44
2023/04/28 14:47:05;;;;;;;0.40;0.40;;;;;;;;;;5064501;27;81875;-43
2023/04/28 14:49:33;;;;;;;0.50;0.50;;;;;;;;;;5063745;27;83939;-43
2023/04/28 14:52:02;;;;;;;2.13;0.60;;;;;;;;;;5064392;27;82852;-43
2023/04/28 14:54:31;;;;;;;0.50;0.50;;;;;;;;;;5064758;27;83741;-43
2023/04/28 14:56:59;;;;;;;0.50;0.50;;;;;;;;;;5064199;27;81735;-43